createdAt,value
2017-07-12T00:00:55.894Z,18.2
2017-07-12T00:01:57.927Z,18.2
2017-07-12T00:02:59.957Z,18.2
2017-07-12T00:04:01.992Z,18.2
2017-07-12T00:05:04.353Z,18.2
2017-07-12T00:06:06.397Z,18.2
2017-07-12T00:07:08.428Z,18.2
2017-07-12T00:08:10.786Z,18.2
2017-07-12T00:09:13.162Z,18.1
2017-07-12T00:10:15.192Z,18.2
2017-07-12T00:11:17.223Z,18.1
2017-07-12T00:12:19.249Z,18.1
2017-07-12T00:13:21.285Z,18.1
2017-07-12T00:14:23.656Z,18.1
2017-07-12T00:15:25.680Z,18.1
2017-07-12T00:16:27.718Z,18.1
2017-07-12T00:17:29.760Z,18.1
2017-07-12T00:18:32.131Z,18.1
2017-07-12T00:19:34.163Z,18.1
2017-07-12T00:20:36.186Z,18.1
2017-07-12T00:21:38.223Z,18.1
2017-07-12T00:22:40.266Z,18.1
2017-07-12T00:23:42.295Z,18.1
2017-07-12T00:24:44.327Z,18.1
2017-07-12T00:25:46.701Z,18.1
2017-07-12T00:26:48.730Z,18.1
2017-07-12T00:27:50.759Z,18.1
2017-07-12T00:28:52.782Z,18
2017-07-12T00:29:54.832Z,18.1
2017-07-12T00:30:56.855Z,18
2017-07-12T00:31:58.886Z,18
2017-07-12T00:33:00.915Z,18
2017-07-12T00:34:02.946Z,18
2017-07-12T00:35:04.979Z,18
2017-07-12T00:36:07.014Z,18
2017-07-12T00:37:09.043Z,18
2017-07-12T00:38:11.088Z,18
2017-07-12T00:39:13.106Z,18
2017-07-12T00:40:15.143Z,18
2017-07-12T00:41:17.186Z,18
2017-07-12T00:42:19.213Z,18
2017-07-12T00:43:21.246Z,18
2017-07-12T00:44:23.285Z,18
2017-07-12T00:45:25.313Z,18
2017-07-12T00:46:27.347Z,17.9
2017-07-12T00:47:29.371Z,17.9
2017-07-12T00:48:31.412Z,17.9
2017-07-12T00:49:33.438Z,17.9
2017-07-12T00:50:35.468Z,17.9
2017-07-12T00:51:37.501Z,17.9
2017-07-12T00:52:39.878Z,17.9
2017-07-12T00:53:41.911Z,17.9
2017-07-12T00:54:43.941Z,17.9
2017-07-12T00:55:45.975Z,17.9
2017-07-12T00:56:48.009Z,17.9
2017-07-12T00:57:50.049Z,17.8
2017-07-12T00:58:52.421Z,17.8
2017-07-12T00:59:54.463Z,17.8
2017-07-12T01:00:56.490Z,17.8
2017-07-12T01:01:58.528Z,17.8
2017-07-12T01:03:00.568Z,17.8
2017-07-12T01:04:02.593Z,17.8
2017-07-12T01:05:04.627Z,17.8
2017-07-12T01:06:06.658Z,17.7
2017-07-12T01:07:08.695Z,17.7
2017-07-12T01:08:10.724Z,17.7
2017-07-12T01:09:12.753Z,17.7
2017-07-12T01:10:14.793Z,17.7
2017-07-12T01:11:16.817Z,17.7
2017-07-12T01:12:18.842Z,17.7
2017-07-12T01:13:20.875Z,17.7
2017-07-12T01:14:22.900Z,17.7
2017-07-12T01:15:24.940Z,17.7
2017-07-12T01:16:26.970Z,17.6
2017-07-12T01:17:29.000Z,17.6
2017-07-12T01:18:31.034Z,17.6
2017-07-12T01:19:33.400Z,17.6
2017-07-12T01:20:35.434Z,17.6
2017-07-12T01:21:37.479Z,17.6
2017-07-12T01:22:39.510Z,17.6
2017-07-12T01:23:41.535Z,17.6
2017-07-12T01:24:43.569Z,17.5
2017-07-12T01:25:45.606Z,17.5
2017-07-12T01:26:47.631Z,17.5
2017-07-12T01:27:49.663Z,17.5
2017-07-12T01:28:51.699Z,17.5
2017-07-12T01:29:53.732Z,17.5
2017-07-12T01:30:55.756Z,17.5
2017-07-12T01:31:57.783Z,17.5
2017-07-12T01:32:59.816Z,17.5
2017-07-12T01:34:02.195Z,17.5
2017-07-12T01:35:04.225Z,17.5
2017-07-12T01:36:06.269Z,17.5
2017-07-12T01:37:08.301Z,17.5
2017-07-12T01:38:10.328Z,17.5
2017-07-12T01:39:12.360Z,17.5
2017-07-12T01:40:14.385Z,17.5
2017-07-12T01:41:16.422Z,17.5
2017-07-12T01:42:18.458Z,17.4
2017-07-12T01:43:20.506Z,17.5
2017-07-12T01:44:22.558Z,17.5
2017-07-12T01:45:24.609Z,17.5
2017-07-12T01:46:26.657Z,17.5
2017-07-12T01:47:28.707Z,17.5
2017-07-12T01:48:30.769Z,17.5
2017-07-12T01:49:32.816Z,17.5
2017-07-12T01:50:34.865Z,17.6
2017-07-12T01:51:36.915Z,17.6
2017-07-12T01:52:38.961Z,17.6
2017-07-12T01:53:41.007Z,17.6
2017-07-12T01:54:43.057Z,17.6
2017-07-12T01:55:45.107Z,17.6
2017-07-12T01:56:47.498Z,17.6
2017-07-12T01:57:49.547Z,17.6
2017-07-12T01:58:51.595Z,17.5
2017-07-12T01:59:53.644Z,17.5
2017-07-12T02:00:55.693Z,17.6
2017-07-12T02:01:57.743Z,17.6
2017-07-12T02:02:59.790Z,17.6
2017-07-12T02:04:01.840Z,17.6
2017-07-12T02:05:03.890Z,17.6
2017-07-12T02:06:05.941Z,17.6
2017-07-12T02:07:07.989Z,17.6
2017-07-12T02:08:10.042Z,17.7
2017-07-12T02:09:12.088Z,17.7
2017-07-12T02:10:14.136Z,17.7
2017-07-12T02:11:16.183Z,17.6
2017-07-12T02:12:18.236Z,17.7
2017-07-12T02:13:20.280Z,17.6
2017-07-12T02:14:22.330Z,17.7
2017-07-12T02:15:24.385Z,17.7
2017-07-12T02:16:26.778Z,17.7
2017-07-12T02:17:28.829Z,17.7
2017-07-12T02:18:30.878Z,17.7
2017-07-12T02:19:32.927Z,17.7
2017-07-12T02:20:34.977Z,17.7
2017-07-12T02:21:37.028Z,17.7
2017-07-12T02:22:39.078Z,17.8
2017-07-12T02:23:41.126Z,17.8
2017-07-12T02:24:43.175Z,17.8
2017-07-12T02:25:45.226Z,17.7
2017-07-12T02:26:47.276Z,17.8
2017-07-12T02:27:49.325Z,17.8
2017-07-12T02:28:51.376Z,17.8
2017-07-12T02:29:53.427Z,17.8
2017-07-12T02:30:55.475Z,17.8
2017-07-12T02:31:57.532Z,17.8
2017-07-12T02:32:59.586Z,17.8
2017-07-12T02:34:01.633Z,17.8
2017-07-12T02:35:03.680Z,17.8
2017-07-12T02:36:05.736Z,17.8
2017-07-12T02:37:07.783Z,17.8
2017-07-12T02:38:09.837Z,17.8
2017-07-12T02:39:11.892Z,17.9
2017-07-12T02:40:13.940Z,17.9
2017-07-12T02:41:15.990Z,17.8
2017-07-12T02:42:18.042Z,17.9
2017-07-12T02:43:20.092Z,17.8
2017-07-12T02:44:22.142Z,17.9
2017-07-12T02:45:24.186Z,17.9
2017-07-12T02:46:26.229Z,17.9
2017-07-12T02:47:29.481Z,17.9
2017-07-12T02:48:31.533Z,17.9
2017-07-12T02:49:33.585Z,17.9
2017-07-12T02:50:35.637Z,17.9
2017-07-12T02:51:37.688Z,17.9
2017-07-12T02:52:40.087Z,17.9
2017-07-12T02:53:42.136Z,17.9
2017-07-12T02:54:44.180Z,17.9
2017-07-12T02:55:46.220Z,17.9
2017-07-12T02:56:48.265Z,17.9
2017-07-12T02:57:50.291Z,17.9
2017-07-12T02:58:52.322Z,17.9
2017-07-12T02:59:54.356Z,18
2017-07-12T03:00:56.392Z,18
2017-07-12T03:01:58.422Z,18
2017-07-12T03:03:00.458Z,18
2017-07-12T03:04:02.497Z,18
2017-07-12T03:05:04.526Z,18.1
2017-07-12T03:06:06.551Z,18.1
2017-07-12T03:07:08.591Z,18.1
2017-07-12T03:08:10.628Z,18.1
2017-07-12T03:09:12.661Z,18.1
2017-07-12T03:10:14.702Z,18.1
2017-07-12T03:11:16.738Z,18.2
2017-07-12T03:12:18.772Z,18.2
2017-07-12T03:13:20.803Z,18.2
2017-07-12T03:14:22.836Z,18.2
2017-07-12T03:15:24.880Z,18.2
2017-07-12T03:16:26.910Z,18.2
2017-07-12T03:17:28.945Z,18.2
2017-07-12T03:18:30.986Z,18.2
2017-07-12T03:19:33.012Z,18.2
2017-07-12T03:20:35.046Z,18.2
2017-07-12T03:21:37.074Z,18.2
2017-07-12T03:22:39.113Z,18.2
2017-07-12T03:23:41.149Z,18.3
2017-07-12T03:24:43.175Z,18.3
2017-07-12T03:25:45.222Z,18.3
2017-07-12T03:26:47.262Z,18.3
2017-07-12T03:27:49.290Z,18.3
2017-07-12T03:28:51.327Z,18.3
2017-07-12T03:29:53.355Z,18.3
2017-07-12T03:30:55.390Z,18.3
2017-07-12T03:31:57.787Z,18.3
2017-07-12T03:32:59.817Z,18.3
2017-07-12T03:34:01.847Z,18.3
2017-07-12T03:35:03.881Z,18.3
2017-07-12T03:36:05.913Z,18.3
2017-07-12T03:37:07.957Z,18.3
2017-07-12T03:38:09.984Z,18.3
2017-07-12T03:39:12.035Z,18.3
2017-07-12T03:40:14.412Z,18.3
2017-07-12T03:41:16.782Z,18.3
2017-07-12T03:42:18.820Z,18.3
2017-07-12T03:43:20.863Z,18.3
2017-07-12T03:44:23.231Z,18.3
2017-07-12T03:45:25.269Z,18.4
2017-07-12T03:46:27.307Z,18.4
2017-07-12T03:47:29.350Z,18.4
2017-07-12T03:48:31.376Z,18.4
2017-07-12T03:49:33.411Z,18.4
2017-07-12T03:50:35.450Z,18.4
2017-07-12T03:51:37.480Z,18.4
2017-07-12T03:52:39.518Z,18.4
2017-07-12T03:53:41.550Z,18.4
2017-07-12T03:54:43.581Z,18.5
2017-07-12T03:55:45.620Z,18.5
2017-07-12T03:56:47.645Z,18.5
2017-07-12T03:57:49.693Z,18.5
2017-07-12T03:58:51.725Z,18.5
2017-07-12T03:59:53.750Z,18.5
2017-07-12T04:00:55.790Z,18.5
2017-07-12T04:01:57.823Z,18.6
2017-07-12T04:02:59.865Z,18.6
2017-07-12T04:04:01.897Z,18.5
2017-07-12T04:05:03.933Z,18.6
2017-07-12T04:06:05.970Z,18.6
2017-07-12T04:07:08.022Z,18.6
2017-07-12T04:08:10.051Z,18.6
2017-07-12T04:09:12.081Z,18.6
2017-07-12T04:10:14.116Z,18.6
2017-07-12T04:11:16.140Z,18.6
2017-07-12T04:12:18.530Z,18.6
2017-07-12T04:13:20.909Z,18.6
2017-07-12T04:14:23.278Z,18.6
2017-07-12T04:15:25.321Z,18.6
2017-07-12T04:16:27.345Z,18.6
2017-07-12T04:17:29.377Z,18.6
2017-07-12T04:18:31.413Z,18.6
2017-07-12T04:19:33.454Z,18.7
2017-07-12T04:20:35.496Z,18.7
2017-07-12T04:21:37.525Z,18.7
2017-07-12T04:22:39.564Z,18.7
2017-07-12T04:23:41.600Z,18.7
2017-07-12T04:24:43.638Z,18.7
2017-07-12T04:25:46.065Z,18.7
2017-07-12T04:26:48.109Z,18.7
2017-07-12T04:27:50.146Z,18.7
2017-07-12T04:28:52.180Z,18.7
2017-07-12T04:29:54.219Z,18.8
2017-07-12T04:30:56.266Z,18.8
2017-07-12T04:31:58.308Z,18.8
2017-07-12T04:33:00.332Z,18.8
2017-07-12T04:34:02.372Z,18.7
2017-07-12T04:35:04.411Z,18.8
2017-07-12T04:36:06.438Z,18.8
2017-07-12T04:37:08.477Z,18.8
2017-07-12T04:38:10.530Z,18.8
2017-07-12T04:39:12.906Z,18.8
2017-07-12T04:40:15.288Z,18.8
2017-07-12T04:41:17.325Z,18.8
2017-07-12T04:42:19.361Z,18.8
2017-07-12T04:43:21.393Z,18.8
2017-07-12T04:44:23.427Z,18.8
2017-07-12T04:45:25.816Z,18.8
2017-07-12T04:46:27.849Z,18.8
2017-07-12T04:47:29.898Z,18.8
2017-07-12T04:48:31.925Z,18.8
2017-07-12T04:49:33.958Z,18.8
2017-07-12T04:50:35.999Z,18.8
2017-07-12T04:51:38.518Z,18.8
2017-07-12T04:52:40.718Z,18.8
2017-07-12T04:53:43.294Z,18.8
2017-07-12T04:54:45.655Z,18.7
2017-07-12T04:55:47.724Z,18.7
2017-07-12T04:56:50.513Z,18.7
2017-07-12T04:57:52.686Z,18.7
2017-07-12T04:58:54.873Z,18.7
2017-07-12T04:59:57.117Z,18.7
2017-07-12T05:00:59.355Z,18.7
2017-07-12T05:02:01.752Z,18.7
2017-07-12T05:03:04.037Z,18.7
2017-07-12T05:04:06.568Z,18.7
2017-07-12T05:05:08.656Z,18.7
2017-07-12T05:06:10.793Z,18.7
2017-07-12T05:07:12.920Z,18.7
2017-07-12T05:08:15.009Z,18.8
2017-07-12T05:09:17.295Z,18.8
2017-07-12T05:10:19.466Z,18.8
2017-07-12T05:11:21.677Z,18.8
2017-07-12T05:12:23.873Z,18.8
2017-07-12T05:13:26.791Z,18.8
2017-07-12T05:14:28.987Z,18.8
2017-07-12T05:15:31.072Z,18.9
2017-07-12T05:16:33.518Z,18.9
2017-07-12T05:17:35.970Z,18.9
2017-07-12T05:18:38.732Z,19
2017-07-12T05:19:42.186Z,18.9
2017-07-12T05:20:44.414Z,19
2017-07-12T05:21:46.963Z,19
2017-07-12T05:22:49.999Z,19
2017-07-12T05:23:52.482Z,19
2017-07-12T05:24:54.607Z,19
2017-07-12T05:25:57.638Z,19.1
2017-07-12T05:26:59.923Z,19.1
2017-07-12T05:28:02.156Z,19.1
2017-07-12T05:29:04.221Z,19.2
2017-07-12T05:30:06.249Z,19.2
2017-07-12T05:31:08.296Z,19.2
2017-07-12T05:32:10.334Z,19.2
2017-07-12T05:33:12.385Z,19.3
2017-07-12T05:34:14.418Z,19.3
2017-07-12T05:35:16.458Z,19.3
2017-07-12T05:36:18.509Z,19.4
2017-07-12T05:37:20.552Z,19.3
2017-07-12T05:38:22.592Z,19.3
2017-07-12T05:39:25.002Z,19.4
2017-07-12T05:40:27.041Z,19.4
2017-07-12T05:41:29.076Z,19.4
2017-07-12T05:42:31.122Z,19.4
2017-07-12T05:43:33.155Z,19.5
2017-07-12T05:44:35.198Z,19.5
2017-07-12T05:45:37.240Z,19.5
2017-07-12T05:46:39.282Z,19.5
2017-07-12T05:47:41.326Z,19.5
2017-07-12T05:48:43.366Z,19.5
2017-07-12T05:49:45.403Z,19.5
2017-07-12T05:50:47.797Z,19.5
2017-07-12T05:51:49.835Z,19.5
2017-07-12T05:52:51.882Z,19.6
2017-07-12T05:53:53.923Z,19.5
2017-07-12T05:54:55.971Z,19.6
2017-07-12T05:55:58.021Z,19.6
2017-07-12T05:57:00.059Z,19.6
2017-07-12T05:58:03.137Z,19.6
2017-07-12T05:59:08.391Z,19.6
2017-07-12T06:00:15.336Z,19.6
2017-07-12T06:01:24.289Z,19.6
2017-07-12T06:02:32.948Z,19.6
2017-07-12T06:03:39.814Z,19.6
2017-07-12T06:04:49.541Z,19.7
2017-07-12T06:06:00.161Z,19.7
2017-07-12T06:07:09.608Z,19.7
2017-07-12T06:08:18.096Z,19.7
2017-07-12T06:09:25.076Z,19.7
2017-07-12T06:10:30.390Z,19.8
2017-07-12T06:11:32.449Z,19.7
2017-07-12T06:12:34.553Z,19.8
2017-07-12T06:13:36.584Z,19.8
2017-07-12T06:14:38.622Z,19.8
2017-07-12T06:15:40.685Z,19.8
2017-07-12T06:16:42.734Z,19.8
2017-07-12T06:17:45.129Z,19.8
2017-07-12T06:18:47.181Z,19.9
2017-07-12T06:19:49.264Z,19.9
2017-07-12T06:20:51.301Z,19.9
2017-07-12T06:21:53.369Z,19.9
2017-07-12T06:22:55.428Z,19.9
2017-07-12T06:23:57.480Z,19.9
2017-07-12T06:24:59.522Z,19.9
2017-07-12T06:26:01.552Z,19.9
2017-07-12T06:27:03.690Z,19.9
2017-07-12T06:28:05.760Z,19.9
2017-07-12T06:29:07.814Z,19.9
2017-07-12T06:30:09.901Z,19.9
2017-07-12T06:31:11.971Z,19.9
2017-07-12T06:32:14.009Z,19.9
2017-07-12T06:33:16.063Z,19.9
2017-07-12T06:34:18.195Z,19.9
2017-07-12T06:35:20.264Z,19.9
2017-07-12T06:36:22.321Z,19.9
2017-07-12T06:37:24.391Z,19.9
2017-07-12T06:38:26.529Z,19.9
2017-07-12T06:39:28.595Z,19.9
2017-07-12T06:40:30.677Z,19.9
2017-07-12T06:41:32.762Z,19.9
2017-07-12T06:42:34.819Z,19.9
2017-07-12T06:44:53.837Z,19.9
2017-07-12T06:45:55.868Z,19.9
2017-07-12T06:46:57.884Z,19.9
2017-07-12T06:47:59.908Z,19.9
2017-07-12T06:49:01.930Z,19.9
2017-07-12T06:50:04.009Z,19.9
2017-07-12T06:51:05.985Z,19.9
2017-07-12T06:52:08.007Z,19.9
2017-07-12T06:53:10.012Z,19.9
2017-07-12T06:54:12.036Z,19.9
2017-07-12T06:55:14.069Z,19.9
2017-07-12T06:56:16.092Z,19.9
2017-07-12T06:57:18.116Z,19.9
2017-07-12T06:58:20.139Z,19.9
2017-07-12T06:59:22.507Z,19.9
2017-07-12T07:00:24.522Z,19.9
2017-07-12T07:01:26.546Z,19.9
2017-07-12T07:02:28.579Z,19.9
2017-07-12T07:03:30.597Z,19.9
2017-07-12T07:04:32.610Z,19.9
2017-07-12T07:05:34.630Z,19.9
2017-07-12T07:06:36.654Z,20
2017-07-12T07:07:38.670Z,20
2017-07-12T07:08:40.686Z,20
2017-07-12T07:09:42.721Z,20
2017-07-12T07:10:44.736Z,20
2017-07-12T07:11:46.747Z,20
2017-07-12T07:12:48.769Z,20
2017-07-12T07:13:50.792Z,19.9
2017-07-12T07:14:52.806Z,19.9
2017-07-12T07:15:54.829Z,19.9
2017-07-12T07:16:56.851Z,19.9
2017-07-12T07:17:58.872Z,19.9
2017-07-12T07:19:00.896Z,19.8
2017-07-12T07:20:02.916Z,19.8
2017-07-12T07:21:04.930Z,19.8
2017-07-12T07:22:07.252Z,19.8
2017-07-12T07:23:09.274Z,19.8
2017-07-12T07:24:11.289Z,19.8
2017-07-12T07:25:13.311Z,19.7
2017-07-12T07:26:15.327Z,19.7
2017-07-12T07:27:17.354Z,19.7
2017-07-12T07:28:19.369Z,19.7
2017-07-12T07:29:21.390Z,19.7
2017-07-12T07:30:23.407Z,19.7
2017-07-12T07:31:25.794Z,19.7
2017-07-12T07:32:27.810Z,19.7
2017-07-12T07:33:29.822Z,19.7
2017-07-12T07:34:31.826Z,19.8
2017-07-12T07:35:33.856Z,19.8
2017-07-12T07:36:35.890Z,19.8
2017-07-12T07:37:38.007Z,19.8
2017-07-12T07:38:40.020Z,19.9
2017-07-12T07:39:42.045Z,19.9
2017-07-12T07:40:44.065Z,19.9
2017-07-12T07:41:46.086Z,19.9
2017-07-12T07:42:48.101Z,20
2017-07-12T07:43:50.125Z,20
2017-07-12T07:44:52.134Z,20
2017-07-12T07:45:54.161Z,20
2017-07-12T07:46:56.180Z,20
2017-07-12T07:47:58.200Z,20
2017-07-12T07:49:00.217Z,20
2017-07-12T07:50:02.241Z,20
2017-07-12T07:51:04.258Z,19.9
2017-07-12T07:52:06.280Z,20
2017-07-12T07:53:08.295Z,19.9
2017-07-12T07:54:10.321Z,19.9
2017-07-12T07:55:12.343Z,19.9
2017-07-12T07:56:14.363Z,19.9
2017-07-12T07:57:16.380Z,19.9
2017-07-12T07:58:18.403Z,19.9
2017-07-12T07:59:20.422Z,19.9
2017-07-12T08:00:22.438Z,19.9
2017-07-12T08:01:24.457Z,20
2017-07-12T08:02:26.477Z,19.9
2017-07-12T08:03:28.497Z,19.9
2017-07-12T08:04:30.523Z,20
2017-07-12T08:05:32.539Z,19.9
2017-07-12T08:06:34.569Z,19.9
2017-07-12T08:07:36.579Z,20
2017-07-12T08:08:38.604Z,20
2017-07-12T08:09:40.624Z,20
2017-07-12T08:10:42.638Z,20.1
2017-07-12T08:11:44.663Z,20.1
2017-07-12T08:12:46.688Z,20.1
2017-07-12T08:13:48.705Z,20.1
2017-07-12T08:14:50.726Z,20.1
2017-07-12T08:15:52.743Z,20.2
2017-07-12T08:16:54.765Z,20.2
2017-07-12T08:17:56.789Z,20.2
2017-07-12T08:18:58.809Z,20.3
2017-07-12T08:20:00.823Z,20.3
2017-07-12T08:21:02.842Z,20.3
2017-07-12T08:22:04.862Z,20.4
2017-07-12T08:23:06.891Z,20.4
2017-07-12T08:24:08.905Z,20.4
2017-07-12T08:25:10.927Z,20.4
2017-07-12T08:26:12.953Z,20.5
2017-07-12T08:27:14.981Z,20.5
2017-07-12T08:28:16.995Z,20.5
2017-07-12T08:29:19.015Z,20.6
2017-07-12T08:30:21.044Z,20.6
2017-07-12T08:31:23.074Z,20.6
2017-07-12T08:32:25.089Z,20.7
2017-07-12T08:33:27.113Z,20.8
2017-07-12T08:34:29.139Z,20.8
2017-07-12T08:35:31.160Z,20.9
2017-07-12T08:36:33.185Z,20.9
2017-07-12T08:37:35.203Z,20.9
2017-07-12T08:38:37.225Z,21
2017-07-12T08:39:39.258Z,21
2017-07-12T08:40:41.279Z,21
2017-07-12T08:41:43.295Z,21
2017-07-12T08:42:45.319Z,21.1
2017-07-12T08:43:47.345Z,21.1
2017-07-12T08:44:49.362Z,21.1
2017-07-12T08:45:51.381Z,21.2
2017-07-12T08:46:53.413Z,21.2
2017-07-12T08:47:55.437Z,21.2
2017-07-12T08:48:57.445Z,21.2
2017-07-12T08:49:59.820Z,21.3
2017-07-12T08:51:01.848Z,21.3
2017-07-12T08:52:03.871Z,21.3
2017-07-12T08:53:05.896Z,21.3
2017-07-12T08:54:07.917Z,21.4
2017-07-12T08:55:09.949Z,21.4
2017-07-12T08:56:11.963Z,21.4
2017-07-12T08:57:13.984Z,21.4
2017-07-12T08:58:16.022Z,21.5
2017-07-12T08:59:18.041Z,21.5
2017-07-12T09:00:20.056Z,21.5
2017-07-12T09:01:22.084Z,21.5
2017-07-12T09:02:24.109Z,21.5
2017-07-12T09:03:26.163Z,21.5
2017-07-12T09:04:28.187Z,21.5
2017-07-12T09:05:30.219Z,21.5
2017-07-12T09:06:32.247Z,21.5
2017-07-12T09:07:34.325Z,21.5
2017-07-12T09:08:36.405Z,21.5
2017-07-12T09:09:38.622Z,21.5
2017-07-12T09:10:40.769Z,21.5
2017-07-12T09:11:42.830Z,21.5
2017-07-12T09:12:44.866Z,21.5
2017-07-12T09:13:46.955Z,21.5
2017-07-12T09:14:49.331Z,21.6
2017-07-12T09:15:51.369Z,21.5
2017-07-12T09:16:53.399Z,21.5
2017-07-12T09:17:55.453Z,21.5
2017-07-12T09:18:57.528Z,21.5
2017-07-12T09:19:59.604Z,21.5
2017-07-12T09:21:01.954Z,21.5
2017-07-12T09:22:04.011Z,21.5
2017-07-12T09:23:06.037Z,21.5
2017-07-12T09:24:08.068Z,21.5
2017-07-12T09:33:35.624Z,21.9
2017-07-12T09:34:37.674Z,21.9
2017-07-12T09:35:39.725Z,21.9
2017-07-12T09:36:41.775Z,22
2017-07-12T09:37:43.804Z,22
2017-07-12T09:38:46.206Z,22.1
2017-07-12T09:39:48.237Z,22.1
2017-07-12T09:40:50.621Z,22.1
2017-07-12T09:41:52.634Z,22.2
2017-07-12T09:42:54.653Z,22.3
2017-07-12T09:43:56.741Z,22.4
2017-07-12T09:44:58.788Z,22.4
2017-07-12T09:46:00.847Z,22.5
2017-07-12T09:47:02.934Z,22.6
2017-07-12T09:48:04.950Z,22.6
2017-07-12T09:49:07.039Z,22.6
2017-07-12T09:50:09.044Z,22.6
2017-07-12T09:51:11.094Z,22.6
2017-07-12T09:52:13.136Z,22.6
2017-07-12T09:53:15.152Z,22.6
2017-07-12T09:54:17.186Z,22.5
2017-07-12T09:55:19.235Z,22.5
2017-07-12T09:56:21.341Z,22.4
2017-07-12T09:57:23.382Z,22.4
2017-07-12T09:58:25.437Z,22.3
2017-07-12T09:59:27.469Z,22.3
2017-07-12T10:00:29.490Z,22.3
2017-07-12T10:01:31.531Z,22.2
2017-07-12T10:02:33.566Z,22.2
2017-07-12T10:03:35.619Z,22.2
2017-07-12T10:04:37.640Z,22.1
2017-07-12T10:05:39.688Z,22.1
2017-07-12T10:06:41.717Z,22.1
2017-07-12T10:07:43.752Z,22
2017-07-12T10:08:45.770Z,22
2017-07-12T10:09:47.795Z,22
2017-07-12T10:10:50.181Z,22
2017-07-12T10:11:52.580Z,22
2017-07-12T10:12:54.619Z,22
2017-07-12T10:13:56.636Z,21.9
2017-07-12T10:14:58.732Z,21.9
2017-07-12T10:16:00.756Z,21.9
2017-07-12T10:17:02.774Z,21.9
2017-07-12T10:18:04.801Z,21.8
2017-07-12T10:19:06.883Z,21.8
2017-07-12T10:20:08.904Z,21.8
2017-07-12T10:21:10.944Z,21.8
2017-07-12T10:22:12.956Z,21.8
2017-07-12T10:23:15.325Z,21.8
2017-07-12T10:24:17.354Z,21.8
2017-07-12T10:25:19.382Z,21.8
2017-07-12T10:26:21.408Z,21.8
2017-07-12T10:27:23.433Z,21.8
2017-07-12T10:28:25.449Z,21.8
2017-07-12T10:29:27.488Z,21.8
2017-07-12T10:30:29.510Z,21.8
2017-07-12T10:31:31.542Z,21.8
2017-07-12T10:32:33.638Z,21.9
2017-07-12T10:33:35.657Z,21.9
2017-07-12T10:34:37.678Z,22
2017-07-12T10:35:39.710Z,22
2017-07-12T10:36:41.864Z,22.1
2017-07-12T10:37:43.887Z,22.1
2017-07-12T10:38:45.916Z,22.2
2017-07-12T10:39:48.272Z,22.2
2017-07-12T10:40:50.304Z,22.3
2017-07-12T10:41:52.370Z,22.4
2017-07-12T10:42:54.399Z,22.4
2017-07-12T10:43:56.429Z,22.5
2017-07-12T10:44:58.443Z,22.5
2017-07-12T10:46:00.475Z,22.6
2017-07-12T10:47:02.533Z,22.6
2017-07-12T10:48:04.571Z,22.7
2017-07-12T10:49:06.592Z,22.7
2017-07-12T10:50:08.618Z,22.7
2017-07-12T10:51:10.646Z,22.7
2017-07-12T10:52:12.682Z,22.7
2017-07-12T10:53:14.710Z,22.7
2017-07-12T10:54:16.736Z,22.7
2017-07-12T10:55:18.752Z,22.6
2017-07-12T10:56:20.781Z,22.6
2017-07-12T10:57:23.140Z,22.6
2017-07-12T10:58:25.167Z,22.6
2017-07-12T10:59:27.194Z,22.6
2017-07-12T11:00:29.213Z,22.6
2017-07-12T11:01:31.242Z,22.6
2017-07-12T11:02:33.623Z,22.6
2017-07-12T11:03:35.636Z,22.6
2017-07-12T11:04:37.671Z,22.6
2017-07-12T11:05:39.687Z,22.6
2017-07-12T11:06:41.715Z,22.7
2017-07-12T11:07:43.819Z,22.7
2017-07-12T11:08:45.834Z,22.7
2017-07-12T11:09:47.861Z,22.7
2017-07-12T11:10:49.895Z,22.7
2017-07-12T11:11:52.331Z,22.7
2017-07-12T11:12:54.361Z,22.7
2017-07-12T11:13:56.382Z,22.7
2017-07-12T11:14:58.404Z,22.7
2017-07-12T11:16:00.434Z,22.6
2017-07-12T11:17:02.588Z,22.6
2017-07-12T11:18:04.619Z,22.6
2017-07-12T11:19:06.643Z,22.6
2017-07-12T11:20:09.015Z,22.6
2017-07-12T11:21:11.041Z,22.5
2017-07-12T11:22:13.065Z,22.5
2017-07-12T11:23:15.094Z,22.5
2017-07-12T11:24:17.115Z,22.4
2017-07-12T11:25:19.139Z,22.4
2017-07-12T11:26:21.161Z,22.4
2017-07-12T11:27:23.178Z,22.4
2017-07-12T11:28:25.202Z,22.3
2017-07-12T11:29:27.576Z,22.3
2017-07-12T11:30:29.601Z,22.3
2017-07-12T11:31:31.622Z,22.3
2017-07-12T11:32:33.780Z,22.3
2017-07-12T11:33:35.804Z,22.4
2017-07-12T11:34:37.830Z,22.4
2017-07-12T11:35:39.851Z,22.4
2017-07-12T11:36:41.888Z,22.4
2017-07-12T11:37:44.122Z,22.4
2017-07-12T11:38:46.141Z,22.4
2017-07-12T11:39:48.162Z,22.4
2017-07-12T11:40:50.210Z,22.4
2017-07-12T11:41:52.326Z,22.4
2017-07-12T11:42:54.347Z,22.4
2017-07-12T11:43:56.384Z,22.4
2017-07-12T11:44:58.408Z,22.4
2017-07-12T11:46:00.428Z,22.5
2017-07-12T11:47:02.452Z,22.5
2017-07-12T11:48:04.473Z,22.5
2017-07-12T11:49:06.492Z,22.5
2017-07-12T11:50:08.852Z,22.5
2017-07-12T11:51:10.868Z,22.5
2017-07-12T11:52:12.987Z,22.5
2017-07-12T11:53:15.004Z,22.5
2017-07-12T11:54:17.027Z,22.4
2017-07-12T11:55:19.045Z,22.4
2017-07-12T11:56:21.081Z,22.3
2017-07-12T11:57:23.098Z,22.4
2017-07-12T11:58:25.120Z,22.3
2017-07-12T11:59:27.149Z,22.3
2017-07-12T12:00:29.181Z,22.3
2017-07-12T12:01:31.192Z,22.3
2017-07-12T12:02:33.222Z,22.2
2017-07-12T12:03:35.240Z,22.2
2017-07-12T12:04:37.271Z,22.1
2017-07-12T12:05:39.299Z,22.1
2017-07-12T12:06:41.332Z,22.1
2017-07-12T12:07:43.355Z,22
2017-07-12T12:08:45.390Z,22
2017-07-12T12:09:47.414Z,22
2017-07-12T12:10:49.447Z,22
2017-07-12T12:11:51.482Z,21.9
2017-07-12T12:12:53.531Z,21.9
2017-07-12T12:13:55.560Z,21.9
2017-07-12T12:14:57.634Z,21.8
2017-07-12T12:15:59.654Z,21.8
2017-07-12T12:17:01.761Z,21.8
2017-07-12T12:18:03.792Z,21.8
2017-07-12T12:19:05.837Z,21.8
2017-07-12T12:20:07.880Z,21.9
2017-07-12T12:21:09.916Z,21.9
2017-07-12T12:22:11.958Z,21.9
2017-07-12T12:23:15.888Z,21.9
2017-07-12T12:24:22.182Z,22
2017-07-12T12:25:28.678Z,22
2017-07-12T12:26:36.290Z,22
2017-07-12T12:27:44.355Z,22.1
2017-07-12T12:28:52.879Z,22.1
2017-07-12T12:30:02.006Z,22.1
2017-07-12T12:31:10.826Z,22.2
2017-07-12T12:32:18.836Z,22.2
2017-07-12T12:33:27.966Z,22.2
2017-07-12T12:34:36.988Z,22.3
2017-07-12T12:35:45.424Z,22.3
2017-07-12T12:36:55.106Z,22.3
2017-07-12T12:38:04.095Z,22.3
2017-07-12T12:39:40.887Z,22.4
2017-07-12T12:40:48.214Z,22.4
2017-07-12T12:41:56.407Z,22.4
2017-07-12T12:43:05.248Z,22.4
2017-07-12T12:44:13.833Z,22.4
2017-07-12T12:45:21.747Z,22.4
2017-07-12T12:46:28.834Z,22.5
2017-07-12T12:47:36.580Z,22.5
2017-07-12T12:48:43.890Z,22.5
2017-07-12T12:49:53.122Z,22.5
2017-07-12T12:51:01.184Z,22.5
2017-07-12T12:52:10.275Z,22.5
2017-07-12T12:53:18.180Z,22.5
2017-07-12T12:54:25.956Z,22.5
2017-07-12T12:55:40.572Z,22.5
2017-07-12T12:56:50.204Z,22.5
2017-07-12T12:58:02.742Z,22.5
2017-07-12T12:59:11.233Z,22.5
2017-07-12T13:00:19.711Z,22.5
2017-07-12T13:01:27.152Z,22.5
2017-07-12T13:02:33.390Z,22.5
2017-07-12T13:03:41.374Z,22.5
2017-07-12T13:04:50.152Z,22.5
2017-07-12T13:05:58.213Z,22.4
2017-07-12T13:07:07.690Z,22.4
2017-07-12T13:08:21.853Z,22.4
2017-07-12T13:09:29.485Z,22.4
2017-07-12T13:10:37.640Z,22.4
2017-07-12T13:11:46.153Z,22.4
2017-07-12T13:12:54.350Z,22.4
2017-07-12T13:14:01.935Z,22.4
2017-07-12T13:15:09.685Z,22.3
2017-07-12T13:16:20.919Z,22.4
2017-07-12T13:17:28.256Z,22.4
2017-07-12T13:18:36.040Z,22.4
2017-07-12T13:19:44.347Z,22.4
2017-07-12T13:20:52.075Z,22.4
2017-07-12T13:22:00.503Z,22.4
2017-07-12T13:23:08.254Z,22.4
2017-07-12T13:24:15.884Z,22.3
2017-07-12T13:25:24.651Z,22.3
2017-07-12T13:26:32.549Z,22.3
2017-07-12T13:27:37.311Z,22.2
2017-07-12T13:28:45.756Z,22.2
2017-07-12T13:30:00.069Z,22.2
2017-07-12T13:31:08.874Z,22.1
2017-07-12T13:32:17.175Z,22
2017-07-12T13:33:25.926Z,22
2017-07-12T13:34:32.217Z,22
2017-07-12T13:35:42.406Z,22
2017-07-12T13:36:51.618Z,22
2017-07-12T13:38:01.033Z,22
2017-07-12T13:39:09.630Z,22
2017-07-12T13:40:18.633Z,22
2017-07-12T13:41:26.905Z,22
2017-07-12T13:42:35.987Z,22
2017-07-12T13:43:46.883Z,22
2017-07-12T13:45:02.598Z,22
2017-07-12T13:46:10.546Z,22
2017-07-12T13:47:21.683Z,22
2017-07-12T13:48:30.092Z,22
2017-07-12T13:49:39.809Z,22
2017-07-12T13:50:47.323Z,22
2017-07-12T13:51:52.113Z,22
2017-07-12T13:52:55.163Z,22.1
2017-07-12T13:53:59.537Z,22.1
2017-07-12T13:55:04.291Z,22.1
2017-07-12T13:56:11.655Z,22.1
2017-07-12T13:57:20.043Z,22.1
2017-07-12T13:58:23.120Z,22.1
2017-07-12T13:59:25.158Z,22.1
2017-07-12T14:00:27.190Z,22.1
2017-07-12T14:01:29.236Z,22.1
2017-07-12T14:02:31.260Z,22
2017-07-12T14:03:33.311Z,22
2017-07-12T14:04:35.316Z,22
2017-07-12T14:05:37.337Z,21.9
2017-07-12T14:06:39.380Z,21.9
2017-07-12T14:07:41.408Z,21.9
2017-07-12T14:08:43.763Z,21.9
2017-07-12T14:09:45.791Z,21.9
2017-07-12T14:10:47.892Z,21.8
2017-07-12T14:11:49.841Z,21.8
2017-07-12T14:12:51.889Z,21.8